Time;durP1;ratioP1;P1;durP2;ratioP2;P2;SDS_P1;SDS_P2;PMS_P1;PMS_P2;Temp;Humidity;BMP_temperature;BMP_pressure;BME280_temperature;BME280_humidity;BME280_pressure;Samples;Min_cycle;Max_cycle;Signal;HPM_P1;HPM_P2
2021/12/08 00:00:56;;;;;;;7.00;6.17;;;;;20.50;98315.00;;;;2077653;28;20460;-48
2021/12/08 00:01:57;;;;;;;7.72;6.53;;;;;20.50;98312.00;;;;2078471;28;20225;-48
2021/12/08 00:02:58;;;;;;;9.33;6.03;;;;;20.50;98310.00;;;;2086924;28;20223;-48
2021/12/08 00:03:59;;;;;;;7.57;5.95;;;;;20.50;98307.00;;;;2085988;28;20213;-48
2021/12/08 00:05:00;;;;;;;7.07;5.78;;;;;20.50;98313.00;;;;2085762;28;20672;-48
2021/12/08 00:06:01;;;;;;;6.73;5.43;;;;;20.50;98308.00;;;;2085938;28;20224;-48
2021/12/08 00:07:02;;;;;;;6.65;4.80;;;;;20.50;98320.00;;;;2086318;28;20216;-48
2021/12/08 00:08:04;;;;;;;6.67;5.80;;;;;20.50;98319.00;;;;2079382;28;20307;-48
2021/12/08 00:14:04;;;;;;;5.10;4.60;;;;;20.40;98304.00;;;;2086638;28;20209;-48
2021/12/08 00:15:04;;;;;;;7.60;5.60;;;;;20.40;98307.00;;;;2086517;28;20244;-47
2021/12/08 00:16:10;;;;;;;7.80;5.13;;;;;20.40;98309.00;;;;2085879;28;20217;-48
2021/12/08 00:17:10;;;;;;;6.05;5.10;;;;;20.40;98311.00;;;;2073606;28;20220;-47
2021/12/08 00:18:17;;;;;;;6.30;4.57;;;;;20.40;98303.00;;;;2085825;28;20584;-48
2021/12/08 00:19:17;;;;;;;4.85;4.22;;;;;20.40;98311.00;;;;2086659;28;20213;-48
2021/12/08 00:20:17;;;;;;;5.40;4.20;;;;;20.40;98318.00;;;;2085997;28;20216;-48
2021/12/08 00:21:19;;;;;;;6.73;4.60;;;;;20.40;98307.00;;;;2083632;28;20684;-47
2021/12/08 00:22:20;;;;;;;5.82;4.28;;;;;20.40;98305.00;;;;2085708;28;20242;-47
2021/12/08 00:23:21;;;;;;;4.78;3.85;;;;;20.40;98304.00;;;;2077983;28;20241;-48
2021/12/08 00:24:21;;;;;;;4.70;3.83;;;;;20.40;98291.00;;;;2078625;28;20569;-48
2021/12/08 00:25:22;;;;;;;5.63;4.30;;;;;20.40;98297.00;;;;2078686;28;20201;-47
2021/12/08 00:26:22;;;;;;;5.00;4.20;;;;;20.40;98306.00;;;;2083715;28;20212;-48
2021/12/08 00:27:23;;;;;;;4.40;4.00;;;;;20.40;98305.00;;;;2086508;28;20205;-48
2021/12/08 00:28:23;;;;;;;4.60;3.97;;;;;20.40;98309.00;;;;2086928;28;20201;-48
2021/12/08 00:29:24;;;;;;;5.97;4.80;;;;;20.40;98302.00;;;;2086376;28;20205;-48
2021/12/08 00:30:24;;;;;;;6.00;4.00;;;;;20.40;98315.00;;;;2081104;28;20586;-47
2021/12/08 00:31:25;;;;;;;4.87;3.57;;;;;20.40;98312.00;;;;2084120;28;20602;-48
2021/12/08 00:32:29;;;;;;;4.40;3.85;;;;;20.40;98303.00;;;;2084937;28;20653;-48
2021/12/08 00:33:30;;;;;;;4.22;3.65;;;;;20.40;98310.00;;;;2084818;28;20216;-48
2021/12/08 00:34:32;;;;;;;5.40;3.92;;;;;20.30;98299.00;;;;2086522;28;20220;-48
2021/12/08 00:35:32;;;;;;;5.78;3.35;;;;;20.40;98290.00;;;;2085724;28;20218;-48
2021/12/08 00:36:41;;;;;;;4.37;3.50;;;;;20.30;98299.00;;;;2085495;28;20290;-47
2021/12/08 00:37:42;;;;;;;6.53;4.00;;;;;20.30;98291.00;;;;2086203;28;20304;-48
2021/12/08 00:38:43;;;;;;;3.97;3.20;;;;;20.30;98296.00;;;;2086811;28;20315;-48
2021/12/08 00:39:44;;;;;;;4.80;3.37;;;;;20.30;98301.00;;;;2085443;28;20681;-49
2021/12/08 00:40:46;;;;;;;5.97;3.10;;;;;20.30;98292.00;;;;2085206;28;20708;-48
2021/12/08 00:41:47;;;;;;;4.05;3.35;;;;;20.30;98303.00;;;;2083030;28;20310;-48
2021/12/08 00:42:47;;;;;;;3.80;3.03;;;;;20.30;98300.00;;;;2078207;28;20217;-48
2021/12/08 00:43:48;;;;;;;5.67;3.40;;;;;20.30;98302.00;;;;2078584;28;20217;-48
2021/12/08 00:44:48;;;;;;;7.47;4.15;;;;;20.20;98305.00;;;;2078039;28;20367;-47
2021/12/08 00:45:49;;;;;;;5.17;3.73;;;;;20.00;98300.00;;;;2078584;28;20247;-48
2021/12/08 00:46:49;;;;;;;4.60;3.60;;;;;20.00;98305.00;;;;2081822;28;20225;-48
2021/12/08 00:47:50;;;;;;;7.33;4.37;;;;;20.00;98301.00;;;;2084715;28;20835;-48
2021/12/08 00:48:51;;;;;;;7.63;4.20;;;;;20.00;98297.00;;;;2078207;28;20701;-48
2021/12/08 00:49:51;;;;;;;8.10;3.93;;;;;20.00;98307.00;;;;2076319;28;20209;-48
2021/12/08 00:50:52;;;;;;;9.57;3.67;;;;;20.10;98309.00;;;;2075208;28;20460;-48
2021/12/08 00:51:54;;;;;;;4.53;3.20;;;;;20.20;98302.00;;;;2075407;28;21215;-49
2021/12/08 00:52:56;;;;;;;16.30;4.25;;;;;20.30;98309.00;;;;2078100;28;20347;-49
2021/12/08 00:53:57;;;;;;;8.70;3.42;;;;;20.30;98313.00;;;;2078831;28;20217;-48
2021/12/08 00:54:58;;;;;;;7.97;3.80;;;;;20.20;98305.00;;;;2083196;28;20217;-48
2021/12/08 00:55:58;;;;;;;8.40;3.80;;;;;20.10;98308.00;;;;2084333;28;20225;-48
2021/12/08 00:56:59;;;;;;;8.20;3.30;;;;;20.20;98294.00;;;;2086682;28;20381;-48
2021/12/08 00:57:59;;;;;;;5.90;2.97;;;;;20.20;98302.00;;;;2086325;28;20260;-48
2021/12/08 00:59:00;;;;;;;4.30;2.80;;;;;20.30;98299.00;;;;2084667;28;20732;-48
2021/12/08 01:00:04;;;;;;;9.40;2.83;;;;;20.30;98291.00;;;;2086963;28;20290;-48
2021/12/08 01:01:07;;;;;;;4.57;2.63;;;;;20.30;98283.00;;;;2084429;28;20244;-48
2021/12/08 01:02:09;;;;;;;16.17;3.42;;;;;20.20;98307.00;;;;2077427;28;20296;-48
2021/12/08 01:03:09;;;;;;;6.72;3.00;;;;;20.20;98302.00;;;;2078528;28;20447;-48
2021/12/08 01:04:10;;;;;;;10.63;3.07;;;;;20.30;98298.00;;;;2086006;28;20221;-48
2021/12/08 01:05:11;;;;;;;9.83;3.53;;;;;20.30;98301.00;;;;2086788;28;20205;-48
2021/12/08 01:06:13;;;;;;;7.90;3.28;;;;;20.40;98301.00;;;;2086330;28;20284;-48
2021/12/08 01:07:14;;;;;;;6.30;2.55;;;;;20.40;98291.00;;;;2086753;28;20220;-48
2021/12/08 01:08:15;;;;;;;4.47;2.63;;;;;20.40;98304.00;;;;2086027;28;20712;-47
2021/12/08 01:09:16;;;;;;;3.90;2.63;;;;;20.40;98303.00;;;;2085836;28;20216;-48
2021/12/08 01:10:20;;;;;;;6.80;2.92;;;;;20.40;98302.00;;;;2086202;28;20300;-49
2021/12/08 01:11:21;;;;;;;8.10;2.60;;;;;20.40;98312.00;;;;2084547;28;20212;-48
2021/12/08 01:12:22;;;;;;;4.75;2.60;;;;;20.40;98307.00;;;;2077870;28;20214;-47
2021/12/08 01:13:23;;;;;;;8.23;2.80;;;;;20.40;98306.00;;;;2078072;28;20587;-48
2021/12/08 01:14:24;;;;;;;4.25;2.65;;;;;20.40;98309.00;;;;2076952;28;20709;-47
2021/12/08 01:15:26;;;;;;;5.50;2.77;;;;;20.40;98304.00;;;;2077531;28;20293;-48
2021/12/08 01:16:26;;;;;;;4.93;2.72;;;;;20.40;98308.00;;;;2076750;28;20260;-49
2021/12/08 01:17:27;;;;;;;5.83;2.80;;;;;20.40;98312.00;;;;2084359;28;20705;-49
2021/12/08 01:18:28;;;;;;;4.50;2.30;;;;;20.40;98304.00;;;;2086592;28;20209;-48
2021/12/08 01:19:29;;;;;;;7.05;3.05;;;;;20.40;98313.00;;;;2086270;28;20819;-48
2021/12/08 01:20:29;;;;;;;6.70;2.70;;;;;20.30;98312.00;;;;2074872;28;20283;-48
2021/12/08 01:21:30;;;;;;;7.13;2.90;;;;;20.30;98322.00;;;;2077594;28;20218;-48
2021/12/08 01:22:31;;;;;;;7.33;2.73;;;;;20.30;98312.00;;;;2076649;28;20210;-48
2021/12/08 01:23:34;;;;;;;4.75;2.72;;;;;20.30;98306.00;;;;2076909;28;20218;-48
2021/12/08 01:24:34;;;;;;;4.18;2.40;;;;;20.30;98302.00;;;;2069416;28;20210;-48
2021/12/08 01:25:35;;;;;;;8.40;3.10;;;;;20.40;98313.00;;;;2077334;28;20210;-48
2021/12/08 01:26:35;;;;;;;5.10;2.73;;;;;20.40;98314.00;;;;2076456;28;20687;-47
2021/12/08 01:27:35;;;;;;;4.20;2.57;;;;;20.40;98329.00;;;;2077129;28;20221;-48
2021/12/08 01:28:36;;;;;;;6.03;2.97;;;;;20.40;98320.00;;;;2077876;28;20217;-48
2021/12/08 01:29:36;;;;;;;7.47;2.70;;;;;20.40;98317.00;;;;2078564;28;20222;-48
2021/12/08 01:30:36;;;;;;;4.33;2.60;;;;;20.40;98327.00;;;;2077044;28;20205;-48
2021/12/08 01:31:41;;;;;;;4.40;2.60;;;;;20.40;98313.00;;;;2077729;28;20261;-49
2021/12/08 01:32:42;;;;;;;3.88;2.10;;;;;20.40;98314.00;;;;2078493;28;20220;-48
2021/12/08 01:33:42;;;;;;;3.53;2.35;;;;;20.40;98313.00;;;;2081600;28;20221;-48
2021/12/08 01:34:43;;;;;;;3.93;2.40;;;;;20.30;98317.00;;;;2078550;28;20715;-48
2021/12/08 01:35:43;;;;;;;3.23;2.20;;;;;20.40;98329.00;;;;2093912;28;20208;-48
2021/12/08 01:36:43;;;;;;;3.73;2.40;;;;;20.40;98317.00;;;;2091235;28;20259;-47
2021/12/08 01:37:44;;;;;;;4.73;2.30;;;;;20.40;98319.00;;;;2086494;28;20224;-48
2021/12/08 01:38:45;;;;;;;2.60;2.00;;;;;20.40;98315.00;;;;2086483;28;20644;-49
2021/12/08 01:39:45;;;;;;;6.03;2.93;;;;;20.40;98325.00;;;;2083409;28;20802;-49
2021/12/08 01:40:45;;;;;;;4.40;1.90;;;;;20.40;98303.00;;;;2079945;28;20258;-48
2021/12/08 01:41:47;;;;;;;5.53;2.47;;;;;20.40;98306.00;;;;2086868;28;20684;-48
2021/12/08 01:42:50;;;;;;;2.95;1.80;;;;;20.40;98315.00;;;;2087384;28;20261;-48
2021/12/08 01:46:31;;;;;;;4.03;2.42;;;;;20.40;98317.00;;;;2087907;28;20205;-47
2021/12/08 01:47:31;;;;;;;5.23;2.30;;;;;20.40;98314.00;;;;2085213;28;20201;-47
2021/12/08 01:48:36;;;;;;;2.80;1.90;;;;;20.40;98320.00;;;;2088213;28;20223;-46
2021/12/08 01:49:37;;;;;;;4.45;2.10;;;;;20.40;98303.00;;;;2087224;28;20602;-47
2021/12/08 01:50:38;;;;;;;2.97;2.17;;;;;20.30;98321.00;;;;2084392;28;20220;-47
2021/12/08 01:51:38;;;;;;;3.00;2.20;;;;;20.40;98314.00;;;;2087237;28;20235;-47
2021/12/08 01:52:40;;;;;;;3.23;2.00;;;;;20.30;98314.00;;;;2086959;28;21049;-49
2021/12/08 01:53:43;;;;;;;4.80;2.20;;;;;20.30;98314.00;;;;2087200;28;20223;-49
2021/12/08 01:54:44;;;;;;;4.22;1.98;;;;;20.30;98305.00;;;;2079368;28;20213;-46
2021/12/08 01:55:44;;;;;;;3.50;1.80;;;;;20.30;98319.00;;;;2086964;28;20624;-47
2021/12/08 01:56:45;;;;;;;3.87;1.93;;;;;20.30;98340.00;;;;2087907;28;20216;-47
2021/12/08 01:57:45;;;;;;;4.27;2.20;;;;;20.30;98319.00;;;;2084303;28;20217;-45
2021/12/08 01:58:45;;;;;;;2.57;1.93;;;;;20.40;98334.00;;;;2079592;28;20304;-46
2021/12/08 01:59:46;;;;;;;3.53;2.30;;;;;20.40;98330.00;;;;2079667;28;20274;-47
2021/12/08 02:00:50;;;;;;;2.73;2.10;;;;;20.30;98325.00;;;;2078598;28;20241;-46
2021/12/08 02:01:51;;;;;;;2.65;1.90;;;;;20.30;98327.00;;;;2079754;28;20217;-49
2021/12/08 02:02:51;;;;;;;2.93;1.60;;;;;20.40;98333.00;;;;2069837;28;20212;-47
2021/12/08 02:03:51;;;;;;;2.73;1.73;;;;;20.30;98326.00;;;;2085424;28;20213;-46
2021/12/08 02:04:52;;;;;;;3.20;1.87;;;;;20.30;98324.00;;;;2087684;28;20258;-47
2021/12/08 02:05:53;;;;;;;2.60;2.00;;;;;20.30;98321.00;;;;2084394;28;20237;-47
2021/12/08 02:06:55;;;;;;;3.20;1.83;;;;;20.40;98313.00;;;;2087868;28;21109;-48
2021/12/08 02:07:55;;;;;;;3.97;1.83;;;;;20.30;98313.00;;;;2085218;28;20494;-49
2021/12/08 02:08:56;;;;;;;2.03;1.50;;;;;20.30;98319.00;;;;2087722;28;20219;-47
2021/12/08 02:09:56;;;;;;;2.97;1.90;;;;;20.30;98327.00;;;;2087640;28;20245;-46
2021/12/08 02:10:58;;;;;;;3.40;2.10;;;;;20.30;98322.00;;;;2086163;28;20652;-46
2021/12/08 02:11:58;;;;;;;1.92;1.63;;;;;20.30;98330.00;;;;2081174;28;20218;-47
2021/12/08 02:12:59;;;;;;;2.93;1.90;;;;;20.40;98323.00;;;;2078521;28;20212;-49
2021/12/08 02:14:01;;;;;;;3.77;1.60;;;;;20.40;98325.00;;;;2070780;28;20640;-47
2021/12/08 02:15:01;;;;;;;3.35;1.80;;;;;20.40;98321.00;;;;2078763;28;20320;-49
2021/12/08 02:16:03;;;;;;;2.83;1.67;;;;;20.40;98317.00;;;;2079125;28;20209;-47
2021/12/08 02:17:03;;;;;;;2.78;1.65;;;;;20.40;98319.00;;;;2079840;28;20540;-47
2021/12/08 02:18:04;;;;;;;2.10;1.70;;;;;20.40;98319.00;;;;2079717;28;20301;-49
2021/12/08 02:19:06;;;;;;;2.20;1.80;;;;;20.40;98312.00;;;;2079007;28;20208;-47
2021/12/08 02:20:09;;;;;;;3.70;2.08;;;;;20.40;98307.00;;;;2078754;28;20360;-47
2021/12/08 02:21:19;;;;;;;2.55;1.40;;;;;20.30;98309.00;;;;2077857;28;20229;-46
2021/12/08 02:22:20;;;;;;;2.03;1.42;;;;;20.30;98319.00;;;;2084072;28;20220;-47
2021/12/08 02:23:20;;;;;;;2.50;1.50;;;;;20.30;98314.00;;;;2086990;28;20591;-48
2021/12/08 02:24:21;;;;;;;2.43;1.97;;;;;20.30;98313.00;;;;2087028;28;20217;-47
2021/12/08 02:25:23;;;;;;;2.28;1.67;;;;;20.40;98316.00;;;;2085470;28;20225;-46
2021/12/08 02:26:23;;;;;;;2.30;1.50;;;;;20.30;98321.00;;;;2086941;28;20278;-46
2021/12/08 02:27:24;;;;;;;2.63;1.53;;;;;20.30;98329.00;;;;2087387;28;20673;-48
2021/12/08 02:28:24;;;;;;;2.93;2.07;;;;;20.30;98327.00;;;;2087745;28;20213;-46
2021/12/08 02:29:43;;;;;;;2.73;1.50;;;;;20.30;98332.00;;;;2087726;28;20303;-46
2021/12/08 02:30:49;;;;;;;2.03;1.50;;;;;20.40;98335.00;;;;2086753;28;20212;-45
2021/12/08 02:32:04;;;;;;;2.20;1.55;;;;;20.30;98312.00;;;;2087657;28;20227;-47
2021/12/08 02:47:52;;;;;;;2.05;1.35;;;;;20.30;98334.00;;;;2087106;28;20228;-46
2021/12/08 02:48:52;;;;;;;2.10;1.30;;;;;20.30;98323.00;;;;2086835;28;20244;-47
2021/12/08 02:49:53;;;;;;;2.20;1.57;;;;;20.30;98328.00;;;;2086977;28;20227;-47
2021/12/08 02:50:53;;;;;;;1.70;1.10;;;;;20.30;98328.00;;;;2077829;28;20698;-47
2021/12/08 02:51:54;;;;;;;1.60;1.20;;;;;20.30;98335.00;;;;2086641;28;20205;-45
2021/12/08 02:52:55;;;;;;;3.50;1.47;;;;;20.30;98335.00;;;;2082741;28;20658;-46
2021/12/08 02:53:57;;;;;;;2.13;1.48;;;;;20.30;98338.00;;;;2078702;28;20209;-48
2021/12/08 02:55:02;;;;;;;2.30;1.35;;;;;20.30;98346.00;;;;2078591;28;20275;-47
2021/12/08 02:56:03;;;;;;;1.52;1.10;;;;;20.30;98335.00;;;;2075544;28;20228;-47
2021/12/08 02:57:04;;;;;;;1.88;1.30;;;;;20.20;98351.00;;;;2086122;28;20752;-48
2021/12/08 02:58:04;;;;;;;1.80;1.50;;;;;20.30;98331.00;;;;2087335;28;20213;-47
2021/12/08 02:59:04;;;;;;;2.70;1.30;;;;;20.30;98342.00;;;;2086867;28;20213;-46
2021/12/08 03:00:08;;;;;;;1.83;1.13;;;;;20.30;98349.00;;;;2084301;28;20213;-46
2021/12/08 03:01:10;;;;;;;4.85;1.63;;;;;20.30;98350.00;;;;2086483;28;20223;-47
2021/12/08 03:02:12;;;;;;;5.57;1.48;;;;;20.30;98352.00;;;;2082616;28;20217;-45
2021/12/08 03:03:12;;;;;;;6.18;1.15;;;;;20.30;98344.00;;;;2086445;28;20558;-47
2021/12/08 03:04:12;;;;;;;1.90;1.03;;;;;20.20;98343.00;;;;2087404;28;20227;-48
2021/12/08 03:05:13;;;;;;;2.77;1.30;;;;;20.20;98344.00;;;;2086513;28;20205;-46
2021/12/08 03:06:13;;;;;;;2.87;1.00;;;;;20.20;98346.00;;;;2086575;28;20221;-45
2021/12/08 03:07:14;;;;;;;2.97;1.17;;;;;20.20;98339.00;;;;2087138;28;20807;-46
2021/12/08 03:08:14;;;;;;;2.47;1.03;;;;;20.20;98349.00;;;;2087441;28;20212;-46
2021/12/08 03:09:15;;;;;;;3.63;1.00;;;;;20.10;98349.00;;;;2086535;28;20208;-46
2021/12/08 03:10:17;;;;;;;2.60;1.23;;;;;20.10;98358.00;;;;2085852;28;20304;-49
2021/12/08 03:11:18;;;;;;;1.90;1.20;;;;;20.10;98352.00;;;;2086090;28;20208;-45
2021/12/08 03:12:29;;;;;;;2.90;1.10;;;;;20.10;98346.00;;;;2086676;28;20217;-48
2021/12/08 03:13:39;;;;;;;2.58;1.30;;;;;20.00;98347.00;;;;2084841;28;20212;-47
2021/12/08 03:14:40;;;;;;;3.05;1.30;;;;;20.00;98342.00;;;;2083142;28;20316;-47
2021/12/08 03:15:44;;;;;;;2.83;1.30;;;;;20.00;98344.00;;;;2078573;28;20222;-48
2021/12/08 03:16:50;;;;;;;3.33;1.20;;;;;20.00;98351.00;;;;2077713;28;20340;-47
2021/12/08 03:17:51;;;;;;;2.00;1.23;;;;;19.90;98362.00;;;;2070697;28;20218;-47
2021/12/08 03:18:52;;;;;;;2.30;1.50;;;;;19.90;98360.00;;;;2078116;28;20222;-46
2021/12/08 03:19:53;;;;;;;2.13;1.00;;;;;19.90;98363.00;;;;2078814;28;20222;-48
2021/12/08 03:20:53;;;;;;;3.03;0.90;;;;;19.90;98362.00;;;;2075893;28;20457;-48
2021/12/08 03:21:54;;;;;;;1.50;0.93;;;;;19.90;98359.00;;;;2078396;28;20225;-46
2021/12/08 03:23:01;;;;;;;0.97;0.87;;;;;19.90;98366.00;;;;2078536;28;21327;-46
2021/12/08 03:24:18;;;;;;;1.65;1.05;;;;;19.90;98365.00;;;;2076763;28;20239;-47
2021/12/08 03:25:23;;;;;;;1.63;1.08;;;;;19.90;98362.00;;;;2089662;28;20907;-46
2021/12/08 03:26:31;;;;;;;1.92;0.90;;;;;19.90;98361.00;;;;2082156;28;20641;-48
2021/12/08 03:27:42;;;;;;;1.33;0.95;;;;;19.90;98362.00;;;;2083722;28;20209;-46
2021/12/08 03:28:56;;;;;;;1.10;0.77;;;;;19.90;98368.00;;;;2086248;28;20213;-45
2021/12/08 03:30:01;;;;;;;1.30;1.10;;;;;19.90;98368.00;;;;2081897;28;20324;-46
2021/12/08 03:31:07;;;;;;;1.58;1.20;;;;;19.80;98376.00;;;;2078151;28;20225;-48
2021/12/08 03:32:14;;;;;;;2.35;0.90;;;;;19.90;98381.00;;;;2074883;28;20858;-47
2021/12/08 03:33:15;;;;;;;1.77;0.90;;;;;19.80;98376.00;;;;2078824;28;20205;-45
2021/12/08 03:34:17;;;;;;;1.17;0.93;;;;;19.80;98371.00;;;;2078590;28;20226;-47
2021/12/08 03:35:18;;;;;;;1.20;0.77;;;;;19.80;98374.00;;;;2078579;28;20359;-48
2021/12/08 03:36:18;;;;;;;2.03;1.03;;;;;19.80;98376.00;;;;2078779;28;20268;-47
2021/12/08 03:37:26;;;;;;;0.90;0.70;;;;;19.80;98375.00;;;;2078948;28;20283;-46
2021/12/08 03:38:26;;;;;;;1.45;1.00;;;;;19.80;98368.00;;;;2078780;28;20221;-46
2021/12/08 03:39:27;;;;;;;1.17;0.70;;;;;19.80;98376.00;;;;2078954;28;20221;-47
2021/12/08 03:40:27;;;;;;;1.27;0.90;;;;;19.80;98378.00;;;;2076803;28;20665;-45
2021/12/08 03:41:32;;;;;;;1.50;0.97;;;;;19.80;98380.00;;;;2077005;28;20213;-47
2021/12/08 03:42:36;;;;;;;1.10;0.80;;;;;19.80;98381.00;;;;2078776;28;20249;-48
2021/12/08 03:43:36;;;;;;;1.63;0.90;;;;;19.80;98381.00;;;;2083411;28;20216;-46
2021/12/08 03:44:37;;;;;;;1.47;0.90;;;;;19.70;98385.00;;;;2085504;28;20244;-48
2021/12/08 03:45:43;;;;;;;1.17;1.08;;;;;19.70;98383.00;;;;2085954;28;20221;-46
2021/12/08 03:46:44;;;;;;;1.35;1.02;;;;;19.80;98384.00;;;;2086242;28;20220;-46
2021/12/08 03:47:46;;;;;;;2.60;1.20;;;;;19.70;98394.00;;;;2086052;28;20209;-46
2021/12/08 03:48:49;;;;;;;1.55;0.90;;;;;19.70;98385.00;;;;2086845;28;20245;-47
2021/12/08 03:49:49;;;;;;;2.10;0.73;;;;;19.70;98373.00;;;;2087160;28;20300;-45
2021/12/08 03:50:50;;;;;;;1.37;0.80;;;;;19.70;98386.00;;;;2085163;28;20961;-45
2021/12/08 03:51:50;;;;;;;1.97;1.00;;;;;19.70;98393.00;;;;2086291;28;21030;-46
2021/12/08 03:52:50;;;;;;;1.00;0.80;;;;;19.70;98387.00;;;;2086346;28;20312;-46
2021/12/08 03:53:51;;;;;;;1.50;0.97;;;;;19.70;98383.00;;;;2081676;28;20230;-48
2021/12/08 03:54:51;;;;;;;1.30;0.90;;;;;19.70;98388.00;;;;2087047;28;20253;-46
2021/12/08 03:55:52;;;;;;;1.20;0.70;;;;;19.70;98384.00;;;;2085485;28;20271;-46
2021/12/08 03:56:53;;;;;;;1.23;0.80;;;;;19.70;98378.00;;;;2086946;28;20883;-47
2021/12/08 03:57:54;;;;;;;0.83;0.70;;;;;19.70;98375.00;;;;2078051;28;20217;-47
2021/12/08 03:58:54;;;;;;;2.47;1.10;;;;;19.70;98379.00;;;;2080389;28;20218;-47
2021/12/08 03:59:54;;;;;;;2.03;0.80;;;;;19.70;98386.00;;;;2087052;28;20307;-46
2021/12/08 04:00:56;;;;;;;1.47;0.90;;;;;19.70;98396.00;;;;2085544;28;20224;-45
2021/12/08 04:01:56;;;;;;;1.30;0.85;;;;;19.70;98384.00;;;;2083283;28;21073;-48
2021/12/08 04:02:57;;;;;;;1.77;0.70;;;;;19.70;98401.00;;;;2086311;28;20225;-46
2021/12/08 04:04:03;;;;;;;1.40;0.82;;;;;19.70;98403.00;;;;2085703;28;20251;-47
2021/12/08 04:05:04;;;;;;;1.63;0.93;;;;;19.70;98399.00;;;;2085435;28;20284;-48
2021/12/08 04:06:14;;;;;;;1.20;0.80;;;;;19.70;98394.00;;;;2086013;28;20572;-46
2021/12/08 04:07:16;;;;;;;1.63;1.00;;;;;19.70;98387.00;;;;2085328;28;20585;-45
2021/12/08 04:08:20;;;;;;;1.13;0.80;;;;;19.70;98397.00;;;;2086771;28;20634;-46
2021/12/08 04:09:30;;;;;;;1.00;0.90;;;;;19.70;98399.00;;;;2086320;28;20704;-46
2021/12/08 04:10:31;;;;;;;1.10;0.80;;;;;19.70;98392.00;;;;2085693;28;20689;-47
2021/12/08 04:11:31;;;;;;;1.30;0.93;;;;;19.70;98390.00;;;;2086049;28;20224;-47
2021/12/08 04:12:31;;;;;;;0.83;0.80;;;;;19.60;98396.00;;;;2086582;28;20251;-47
2021/12/08 04:13:48;;;;;;;1.40;0.80;;;;;19.60;98398.00;;;;2086408;28;20300;-46
2021/12/08 04:14:54;;;;;;;1.00;0.80;;;;;19.60;98405.00;;;;2085118;28;20380;-47
2021/12/08 04:15:54;;;;;;;1.00;0.80;;;;;19.60;98403.00;;;;2086222;28;20209;-45
2021/12/08 04:17:02;;;;;;;1.40;1.27;;;;;19.60;98404.00;;;;2086318;28;20658;-48
2021/12/08 04:18:02;;;;;;;1.83;0.70;;;;;19.60;98404.00;;;;2086875;28;20339;-48
2021/12/08 04:19:04;;;;;;;1.10;0.80;;;;;19.60;98397.00;;;;2086247;28;20217;-47
2021/12/08 04:20:08;;;;;;;1.10;0.80;;;;;19.60;98399.00;;;;2084605;28;20328;-48
2021/12/08 04:21:09;;;;;;;1.45;0.90;;;;;19.60;98389.00;;;;2085184;28;20242;-46
2021/12/08 04:22:16;;;;;;;1.10;0.85;;;;;19.60;98397.00;;;;2086251;28;20239;-44
2021/12/08 04:23:17;;;;;;;1.08;0.80;;;;;19.60;98399.00;;;;2086640;28;20216;-46
2021/12/08 04:24:18;;;;;;;1.85;0.88;;;;;19.60;98405.00;;;;2086630;28;20288;-45
2021/12/08 04:25:21;;;;;;;1.37;0.70;;;;;19.60;98395.00;;;;2086894;28;20213;-45
2021/12/08 04:26:31;;;;;;;1.05;0.90;;;;;19.60;98400.00;;;;2086242;28;20220;-47
2021/12/08 04:27:33;;;;;;;1.30;0.80;;;;;19.60;98405.00;;;;2082169;28;20213;-45
2021/12/08 04:28:34;;;;;;;1.23;0.68;;;;;19.60;98400.00;;;;2078133;28;20236;-47
2021/12/08 04:29:37;;;;;;;1.83;0.83;;;;;19.60;98397.00;;;;2074508;28;20849;-47
2021/12/08 04:30:45;;;;;;;1.35;0.93;;;;;19.60;98400.00;;;;2077797;28;20236;-46
2021/12/08 04:31:45;;;;;;;1.00;0.70;;;;;19.60;98395.00;;;;2076712;28;20722;-46
2021/12/08 04:32:46;;;;;;;1.47;0.80;;;;;19.60;98396.00;;;;2075895;28;20220;-47
2021/12/08 04:33:52;;;;;;;1.57;0.73;;;;;19.60;98389.00;;;;2075766;28;20522;-46
2021/12/08 04:34:54;;;;;;;2.20;0.80;;;;;19.60;98389.00;;;;2078476;28;20455;-45
2021/12/08 04:35:55;;;;;;;1.48;0.75;;;;;19.60;98383.00;;;;2077919;28;20690;-46
2021/12/08 04:37:00;;;;;;;0.80;0.73;;;;;19.60;98389.00;;;;2086009;28;20224;-47
2021/12/08 04:38:04;;;;;;;1.30;0.85;;;;;19.60;98391.00;;;;2085973;28;20510;-47
2021/12/08 04:39:09;;;;;;;1.65;0.80;;;;;19.60;98391.00;;;;2086475;28;20650;-45
2021/12/08 04:40:23;;;;;;;1.00;0.60;;;;;19.60;98385.00;;;;2085695;28;20236;-46
2021/12/08 04:41:30;;;;;;;2.05;0.88;;;;;19.50;98394.00;;;;2086429;28;20593;-45
2021/12/08 04:43:01;;;;;;;1.33;0.88;;;;;19.50;98390.00;;;;2086673;28;20224;-46
2021/12/08 04:44:11;;;;;;;1.30;0.88;;;;;19.60;98394.00;;;;2085909;28;20225;-46
2021/12/08 04:45:19;;;;;;;1.95;1.00;;;;;19.50;98399.00;;;;2086816;28;20723;-46
2021/12/08 04:51:21;;;;;;;1.80;0.90;;;;;19.50;98405.00;;;;2084746;28;20213;-48
2021/12/08 04:52:38;;;;;;;0.95;0.68;;;;;19.50;98400.00;;;;2085850;28;20266;-48
2021/12/08 05:00:12;;;;;;;2.15;0.90;;;;;19.50;98406.00;;;;2086383;28;20209;-46
2021/12/08 05:03:15;;;;;;;1.35;0.80;;;;;19.50;98421.00;;;;2085792;28;20828;-49
2021/12/08 05:06:00;;;;;;;1.15;0.90;;;;;19.40;98413.00;;;;2080438;28;20206;-46
2021/12/08 05:07:12;;;;;;;1.73;0.82;;;;;19.40;98416.00;;;;2082984;28;20216;-47
2021/12/08 05:08:17;;;;;;;1.02;0.80;;;;;19.40;98416.00;;;;2077246;28;20205;-44
2021/12/08 05:09:23;;;;;;;1.95;0.90;;;;;19.40;98422.00;;;;2077380;28;20214;-46
2021/12/08 05:10:33;;;;;;;1.40;0.90;;;;;19.40;98419.00;;;;2085184;28;20503;-45
2021/12/08 05:11:35;;;;;;;1.80;0.93;;;;;19.40;98423.00;;;;2075810;28;20301;-48
2021/12/08 05:12:37;;;;;;;1.25;0.98;;;;;19.40;98433.00;;;;2078297;28;20725;-48
2021/12/08 05:13:37;;;;;;;3.03;0.95;;;;;19.40;98433.00;;;;2074388;28;20740;-46
2021/12/08 05:14:51;;;;;;;1.20;1.00;;;;;19.40;98439.00;;;;2085744;28;20232;-46
2021/12/08 05:15:54;;;;;;;1.65;0.93;;;;;19.40;98436.00;;;;2090817;28;20785;-48
2021/12/08 05:17:22;;;;;;;2.20;0.90;;;;;19.40;98430.00;;;;2086351;28;20228;-48
2021/12/08 05:18:24;;;;;;;1.77;1.00;;;;;19.40;98430.00;;;;2048748;28;20275;-46
2021/12/08 05:19:27;;;;;;;1.35;0.85;;;;;19.40;98436.00;;;;2087493;28;20220;-46
2021/12/08 05:20:41;;;;;;;1.75;0.98;;;;;19.40;98440.00;;;;2086855;28;20213;-46
2021/12/08 05:21:44;;;;;;;1.38;0.70;;;;;19.40;98444.00;;;;2085984;28;20317;-47
2021/12/08 05:22:49;;;;;;;1.75;1.20;;;;;19.40;98442.00;;;;2087417;28;20282;-48
2021/12/08 05:24:19;;;;;;;1.58;0.90;;;;;19.40;98444.00;;;;2087259;28;20209;-46
2021/12/08 05:25:22;;;;;;;1.00;0.80;;;;;19.40;98446.00;;;;2086692;28;20216;-46
2021/12/08 05:26:32;;;;;;;2.67;0.90;;;;;19.40;98439.00;;;;2079374;28;20715;-46
2021/12/08 05:27:40;;;;;;;2.53;1.20;;;;;19.40;98442.00;;;;2087008;28;20235;-46
2021/12/08 05:28:41;;;;;;;2.33;0.93;;;;;19.40;98437.00;;;;2087583;28;20232;-46
2021/12/08 05:29:58;;;;;;;1.30;0.70;;;;;19.40;98442.00;;;;2087334;28;20212;-46
2021/12/08 05:31:18;;;;;;;1.55;0.80;;;;;19.40;98450.00;;;;2086835;28;20730;-45
2021/12/08 05:32:18;;;;;;;1.92;1.33;;;;;19.40;98449.00;;;;2086580;28;20216;-46
2021/12/08 05:33:18;;;;;;;1.80;0.80;;;;;19.40;98449.00;;;;2086593;28;20977;-48
2021/12/08 05:34:19;;;;;;;0.97;0.80;;;;;19.40;98443.00;;;;2087759;28;20213;-48
2021/12/08 05:35:20;;;;;;;1.40;0.67;;;;;19.40;98434.00;;;;2082358;28;20225;-46
2021/12/08 05:36:20;;;;;;;2.00;1.07;;;;;19.30;98449.00;;;;2079414;28;20479;-46
2021/12/08 05:37:22;;;;;;;2.07;0.80;;;;;19.40;98455.00;;;;2079600;28;20214;-46
2021/12/08 05:38:23;;;;;;;1.17;0.80;;;;;19.20;98454.00;;;;2079591;28;20582;-46
2021/12/08 05:39:24;;;;;;;2.13;1.10;;;;;19.40;98460.00;;;;2079633;28;20241;-46
2021/12/08 05:40:30;;;;;;;1.52;0.98;;;;;19.40;98466.00;;;;2078667;28;20213;-45
2021/12/08 05:41:31;;;;;;;1.88;1.00;;;;;19.40;98460.00;;;;2079047;28;20213;-46
2021/12/08 05:42:33;;;;;;;1.45;0.98;;;;;19.40;98462.00;;;;2079286;28;20947;-46
2021/12/08 05:43:35;;;;;;;2.03;1.20;;;;;19.30;98466.00;;;;2076387;28;20236;-48
2021/12/08 05:44:35;;;;;;;1.92;1.00;;;;;19.30;98469.00;;;;2078660;28;20218;-47
2021/12/08 05:45:37;;;;;;;2.30;1.10;;;;;19.30;98462.00;;;;2078489;28;20216;-47
2021/12/08 05:46:42;;;;;;;1.48;0.80;;;;;19.40;98463.00;;;;2078703;28;20224;-46
2021/12/08 05:47:43;;;;;;;1.83;1.10;;;;;19.30;98454.00;;;;2073173;28;20294;-46
2021/12/08 05:48:45;;;;;;;1.73;0.90;;;;;19.30;98465.00;;;;2079299;28;20315;-46
2021/12/08 05:49:46;;;;;;;1.30;1.00;;;;;19.30;98456.00;;;;2085726;28;20759;-48
2021/12/08 05:50:52;;;;;;;1.80;0.90;;;;;19.30;98462.00;;;;2079126;28;20233;-46
2021/12/08 05:51:53;;;;;;;1.83;0.85;;;;;19.30;98455.00;;;;2082410;28;20848;-45
2021/12/08 05:52:54;;;;;;;1.17;1.00;;;;;19.30;98456.00;;;;2086560;28;20262;-48